sensor_id;sensor_type;location;lat;lon;timestamp;pressure;altitude;pressure_sealevel;temperature;humidity
62418;BME280;48456;54.242;10.280;2022-09-21T00:00:54;102390.09;;;5.06;100.00
62418;BME280;48456;54.242;10.280;2022-09-21T00:03:29;102396.31;;;5.08;100.00
62418;BME280;48456;54.242;10.280;2022-09-21T00:06:05;102400.53;;;5.04;100.00
62418;BME280;48456;54.242;10.280;2022-09-21T00:08:32;102394.25;;;5.01;100.00
62418;BME280;48456;54.242;10.280;2022-09-21T00:10:58;102395.13;;;5.01;100.00
62418;BME280;48456;54.242;10.280;2022-09-21T00:13:25;102401.28;;;5.02;100.00
62418;BME280;48456;54.242;10.280;2022-09-21T00:15:54;102402.84;;;4.98;100.00
62418;BME280;48456;54.242;10.280;2022-09-21T00:18:21;102403.84;;;5.00;100.00
62418;BME280;48456;54.242;10.280;2022-09-21T00:20:47;102400.06;;;4.93;100.00
62418;BME280;48456;54.242;10.280;2022-09-21T00:23:14;102404.47;;;4.94;100.00
62418;BME280;48456;54.242;10.280;2022-09-21T00:25:41;102405.22;;;4.92;100.00
62418;BME280;48456;54.242;10.280;2022-09-21T00:28:08;102396.50;;;4.93;100.00
62418;BME280;48456;54.242;10.280;2022-09-21T00:30:34;102396.38;;;4.90;100.00
62418;BME280;48456;54.242;10.280;2022-09-21T00:33:00;102395.56;;;4.91;100.00
62418;BME280;48456;54.242;10.280;2022-09-21T00:35:26;102396.25;;;4.87;100.00
62418;BME280;48456;54.242;10.280;2022-09-21T00:37:53;102400.66;;;4.88;100.00
62418;BME280;48456;54.242;10.280;2022-09-21T00:40:19;102397.97;;;4.86;100.00
62418;BME280;48456;54.242;10.280;2022-09-21T00:42:46;102395.19;;;4.83;100.00
62418;BME280;48456;54.242;10.280;2022-09-21T00:45:12;102395.16;;;4.81;100.00
62418;BME280;48456;54.242;10.280;2022-09-21T00:47:47;102402.94;;;4.80;100.00
62418;BME280;48456;54.242;10.280;2022-09-21T00:50:16;102400.19;;;4.77;100.00
62418;BME280;48456;54.242;10.280;2022-09-21T00:52:44;102399.16;;;4.73;100.00
62418;BME280;48456;54.242;10.280;2022-09-21T00:55:14;102402.59;;;4.72;100.00
62418;BME280;48456;54.242;10.280;2022-09-21T00:57:42;102399.00;;;4.70;100.00
62418;BME280;48456;54.242;10.280;2022-09-21T01:00:09;102396.38;;;4.70;100.00
62418;BME280;48456;54.242;10.280;2022-09-21T01:02:36;102398.03;;;4.68;100.00
62418;BME280;48456;54.242;10.280;2022-09-21T01:05:06;102405.81;;;4.66;100.00
62418;BME280;48456;54.242;10.280;2022-09-21T01:07:34;102401.47;;;4.67;100.00
62418;BME280;48456;54.242;10.280;2022-09-21T01:10:04;102402.25;;;4.64;100.00
62418;BME280;48456;54.242;10.280;2022-09-21T01:12:41;102411.88;;;4.65;100.00
62418;BME280;48456;54.242;10.280;2022-09-21T01:30:41;102416.63;;;4.54;100.00
62418;BME280;48456;54.242;10.280;2022-09-21T01:33:33;102407.94;;;4.55;100.00
62418;BME280;48456;54.242;10.280;2022-09-21T01:36:08;102406.22;;;4.56;100.00
62418;BME280;48456;54.242;10.280;2022-09-21T01:38:39;102405.19;;;4.52;100.00
62418;BME280;48456;54.242;10.280;2022-09-21T01:41:08;102409.38;;;4.49;100.00
62418;BME280;48456;54.242;10.280;2022-09-21T01:43:41;102411.03;;;4.47;100.00
62418;BME280;48456;54.242;10.280;2022-09-21T01:46:10;102402.34;;;4.48;100.00
62418;BME280;48456;54.242;10.280;2022-09-21T01:48:38;102410.13;;;4.46;100.00
62418;BME280;48456;54.242;10.280;2022-09-21T01:51:08;102406.31;;;4.39;100.00
62418;BME280;48456;54.242;10.280;2022-09-21T01:53:40;102409.72;;;4.37;100.00
62418;BME280;48456;54.242;10.280;2022-09-21T01:56:19;102398.38;;;4.38;100.00
62418;BME280;48456;54.242;10.280;2022-09-21T02:01:14;102404.31;;;4.34;100.00
62418;BME280;48456;54.242;10.280;2022-09-21T02:03:43;102410.38;;;4.33;100.00
62418;BME280;48456;54.242;10.280;2022-09-21T02:06:10;102419.06;;;4.32;100.00
62418;BME280;48456;54.242;10.280;2022-09-21T02:08:36;102411.97;;;4.29;100.00
62418;BME280;48456;54.242;10.280;2022-09-21T02:11:04;102414.66;;;4.31;100.00
62418;BME280;48456;54.242;10.280;2022-09-21T02:13:36;102417.28;;;4.31;100.00
62418;BME280;48456;54.242;10.280;2022-09-21T02:16:25;102415.34;;;4.26;100.00
62418;BME280;48456;54.242;10.280;2022-09-21T02:21:30;102414.34;;;4.24;100.00
62418;BME280;48456;54.242;10.280;2022-09-21T02:26:32;102414.19;;;4.21;100.00
62418;BME280;48456;54.242;10.280;2022-09-21T02:29:02;102415.78;;;4.18;100.00
62418;BME280;48456;54.242;10.280;2022-09-21T02:36:36;102411.47;;;4.18;100.00
62418;BME280;48456;54.242;10.280;2022-09-21T02:39:17;102416.53;;;4.15;100.00
62418;BME280;48456;54.242;10.280;2022-09-21T02:41:54;102419.91;;;4.12;100.00
62418;BME280;48456;54.242;10.280;2022-09-21T02:44:29;102419.91;;;4.12;100.00
62418;BME280;48456;54.242;10.280;2022-09-21T02:47:03;102419.00;;;4.12;100.00
62418;BME280;48456;54.242;10.280;2022-09-21T02:49:36;102423.28;;;4.10;100.00
62418;BME280;48456;54.242;10.280;2022-09-21T02:52:05;102418.81;;;4.07;100.00
62418;BME280;48456;54.242;10.280;2022-09-21T02:54:34;102423.22;;;4.08;100.00
62418;BME280;48456;54.242;10.280;2022-09-21T02:57:01;102423.03;;;4.05;100.00
62418;BME280;48456;54.242;10.280;2022-09-21T02:59:28;102425.66;;;4.05;100.00
62418;BME280;48456;54.242;10.280;2022-09-21T03:01:54;102426.50;;;4.04;100.00
62418;BME280;48456;54.242;10.280;2022-09-21T03:04:21;102419.22;;;3.98;100.00
62418;BME280;48456;54.242;10.280;2022-09-21T03:06:48;102415.56;;;3.95;100.00
62418;BME280;48456;54.242;10.280;2022-09-21T03:09:14;102416.34;;;3.92;100.00
62418;BME280;48456;54.242;10.280;2022-09-21T03:11:40;102425.13;;;3.94;100.00
62418;BME280;48456;54.242;10.280;2022-09-21T03:14:10;102425.13;;;3.94;100.00
62418;BME280;48456;54.242;10.280;2022-09-21T03:16:36;102423.19;;;3.90;100.00
62418;BME280;48456;54.242;10.280;2022-09-21T03:19:03;102431.13;;;3.92;100.00
62418;BME280;48456;54.242;10.280;2022-09-21T03:21:30;102427.59;;;3.91;100.00
62418;BME280;48456;54.242;10.280;2022-09-21T03:23:56;102432.63;;;3.86;100.00
62418;BME280;48456;54.242;10.280;2022-09-21T03:26:22;102425.66;;;3.87;100.00
62418;BME280;48456;54.242;10.280;2022-09-21T03:28:49;102431.72;;;3.86;100.00
62418;BME280;48456;54.242;10.280;2022-09-21T03:31:15;102433.44;;;3.85;100.00
62418;BME280;48456;54.242;10.280;2022-09-21T03:33:42;102431.72;;;3.86;100.00
62418;BME280;48456;54.242;10.280;2022-09-21T03:36:08;102430.75;;;3.84;100.00
62418;BME280;48456;54.242;10.280;2022-09-21T03:38:35;102436.88;;;3.84;100.00
62418;BME280;48456;54.242;10.280;2022-09-21T03:41:02;102435.16;;;3.85;100.00
62418;BME280;48456;54.242;10.280;2022-09-21T03:43:29;102430.00;;;3.86;100.00
62418;BME280;48456;54.242;10.280;2022-09-21T03:45:56;102429.09;;;3.86;100.00
62418;BME280;48456;54.242;10.280;2022-09-21T03:48:23;102436.03;;;3.85;100.00
62418;BME280;48456;54.242;10.280;2022-09-21T03:50:49;102433.38;;;3.84;100.00
62418;BME280;48456;54.242;10.280;2022-09-21T03:53:15;102442.94;;;3.83;100.00
62418;BME280;48456;54.242;10.280;2022-09-21T03:55:42;102437.53;;;3.80;100.00
62418;BME280;48456;54.242;10.280;2022-09-21T03:58:08;102444.50;;;3.80;100.00
62418;BME280;48456;54.242;10.280;2022-09-21T04:00:35;102438.28;;;3.77;100.00
62418;BME280;48456;54.242;10.280;2022-09-21T04:03:01;102447.88;;;3.77;100.00
62418;BME280;48456;54.242;10.280;2022-09-21T04:05:28;102445.00;;;3.72;100.00
62418;BME280;48456;54.242;10.280;2022-09-21T04:07:54;102443.31;;;3.73;100.00
62418;BME280;48456;54.242;10.280;2022-09-21T04:10:21;102441.41;;;3.70;100.00
62418;BME280;48456;54.242;10.280;2022-09-21T04:12:59;102438.66;;;3.67;100.00
62418;BME280;48456;54.242;10.280;2022-09-21T04:15:26;102439.44;;;3.66;100.00
62418;BME280;48456;54.242;10.280;2022-09-21T04:17:54;102437.59;;;3.63;100.00
62418;BME280;48456;54.242;10.280;2022-09-21T04:20:21;102436.63;;;3.61;100.00
62418;BME280;48456;54.242;10.280;2022-09-21T04:22:47;102445.13;;;3.57;100.00
62418;BME280;48456;54.242;10.280;2022-09-21T04:25:14;102436.94;;;3.51;100.00
62418;BME280;48456;54.242;10.280;2022-09-21T04:27:40;102440.56;;;3.53;100.00
62418;BME280;48456;54.242;10.280;2022-09-21T04:30:07;102438.69;;;3.50;100.00
62418;BME280;48456;54.242;10.280;2022-09-21T04:32:35;102439.53;;;3.49;100.00
62418;BME280;48456;54.242;10.280;2022-09-21T04:35:02;102431.72;;;3.51;100.00
62418;BME280;48456;54.242;10.280;2022-09-21T04:37:28;102438.84;;;3.54;100.00
62418;BME280;48456;54.242;10.280;2022-09-21T04:39:55;102439.91;;;3.57;100.00
62418;BME280;48456;54.242;10.280;2022-09-21T04:42:21;102441.84;;;3.61;100.00
62418;BME280;48456;54.242;10.280;2022-09-21T04:44:48;102440.13;;;3.62;100.00
62418;BME280;48456;54.242;10.280;2022-09-21T04:47:14;102449.91;;;3.66;100.00
62418;BME280;48456;54.242;10.280;2022-09-21T04:49:41;102448.28;;;3.68;100.00
62418;BME280;48456;54.242;10.280;2022-09-21T04:52:07;102450.75;;;3.65;100.00
62418;BME280;48456;54.242;10.280;2022-09-21T04:54:33;102449.91;;;3.66;100.00
62418;BME280;48456;54.242;10.280;2022-09-21T04:56:59;102453.44;;;3.67;100.00
62418;BME280;48456;54.242;10.280;2022-09-21T04:59:26;102454.34;;;3.67;100.00
62418;BME280;48456;54.242;10.280;2022-09-21T05:01:52;102451.00;;;3.70;100.00
62418;BME280;48456;54.242;10.280;2022-09-21T05:04:19;102457.09;;;3.70;100.00
62418;BME280;48456;54.242;10.280;2022-09-21T05:06:45;102458.94;;;3.71;100.00
62418;BME280;48456;54.242;10.280;2022-09-21T05:09:11;102459.88;;;3.73;100.00
62418;BME280;48456;54.242;10.280;2022-09-21T05:11:56;102464.38;;;3.76;100.00
62418;BME280;48456;54.242;10.280;2022-09-21T05:14:23;102462.69;;;3.76;100.00
62418;BME280;48456;54.242;10.280;2022-09-21T05:16:49;102460.88;;;3.75;100.00
62418;BME280;48456;54.242;10.280;2022-09-21T05:19:16;102467.75;;;3.73;100.00
62418;BME280;48456;54.242;10.280;2022-09-21T05:21:42;102465.22;;;3.75;100.00
62418;BME280;48456;54.242;10.280;2022-09-21T05:24:08;102467.91;;;3.76;100.00
62418;BME280;48456;54.242;10.280;2022-09-21T05:26:35;102474.19;;;3.80;100.00
62418;BME280;48456;54.242;10.280;2022-09-21T05:29:01;102468.38;;;3.86;100.00
62418;BME280;48456;54.242;10.280;2022-09-21T05:39:28;102478.88;;;4.04;100.00
62418;BME280;48456;54.242;10.280;2022-09-21T05:41:54;102474.59;;;4.06;100.00
62418;BME280;48456;54.242;10.280;2022-09-21T05:44:21;102475.66;;;4.10;100.00
62418;BME280;48456;54.242;10.280;2022-09-21T05:49:29;102474.91;;;4.12;100.00
62418;BME280;48456;54.242;10.280;2022-09-21T05:59:35;102478.81;;;4.21;100.00
62418;BME280;48456;54.242;10.280;2022-09-21T06:04:41;102475.88;;;4.33;100.00
62418;BME280;48456;54.242;10.280;2022-09-21T06:07:08;102483.91;;;4.36;100.00
62418;BME280;48456;54.242;10.280;2022-09-21T06:09:34;102485.09;;;4.42;100.00
62418;BME280;48456;54.242;10.280;2022-09-21T06:12:06;102482.63;;;4.46;100.00
62418;BME280;48456;54.242;10.280;2022-09-21T06:14:33;102486.28;;;4.49;100.00
62418;BME280;48456;54.242;10.280;2022-09-21T06:16:59;102483.94;;;4.55;100.00
62418;BME280;48456;54.242;10.280;2022-09-21T06:19:27;102485.16;;;4.62;100.00
62418;BME280;48456;54.242;10.280;2022-09-21T06:21:53;102483.50;;;4.64;100.00
62418;BME280;48456;54.242;10.280;2022-09-21T06:24:20;102489.09;;;4.72;100.00
62418;BME280;48456;54.242;10.280;2022-09-21T06:26:49;102489.59;;;4.83;100.00
62418;BME280;48456;54.242;10.280;2022-09-21T06:29:15;102490.75;;;5.08;100.00
62418;BME280;48456;54.242;10.280;2022-09-21T06:31:43;102493.38;;;5.28;100.00
62418;BME280;48456;54.242;10.280;2022-09-21T06:34:10;102494.88;;;5.42;100.00
62418;BME280;48456;54.242;10.280;2022-09-21T06:36:36;102495.56;;;5.58;100.00
62418;BME280;48456;54.242;10.280;2022-09-21T06:39:02;102497.13;;;5.74;100.00
62418;BME280;48456;54.242;10.280;2022-09-21T06:41:28;102494.88;;;5.83;100.00
62418;BME280;48456;54.242;10.280;2022-09-21T06:43:55;102500.94;;;6.02;100.00
62418;BME280;48456;54.242;10.280;2022-09-21T06:46:22;102506.88;;;6.18;100.00
62418;BME280;48456;54.242;10.280;2022-09-21T06:48:49;102504.06;;;6.36;100.00
62418;BME280;48456;54.242;10.280;2022-09-21T06:51:15;102500.34;;;6.52;100.00
62418;BME280;48456;54.242;10.280;2022-09-21T06:53:41;102503.72;;;6.71;100.00
62418;BME280;48456;54.242;10.280;2022-09-21T06:56:08;102501.72;;;6.88;100.00
62418;BME280;48456;54.242;10.280;2022-09-21T06:58:35;102503.28;;;7.06;100.00
62418;BME280;48456;54.242;10.280;2022-09-21T07:01:12;102504.88;;;7.25;100.00
62418;BME280;48456;54.242;10.280;2022-09-21T07:03:39;102501.22;;;7.46;100.00
62418;BME280;48456;54.242;10.280;2022-09-21T07:06:06;102508.88;;;7.64;100.00
62418;BME280;48456;54.242;10.280;2022-09-21T07:08:33;102512.09;;;7.81;100.00
62418;BME280;48456;54.242;10.280;2022-09-21T07:11:20;102508.25;;;7.97;100.00
62418;BME280;48456;54.242;10.280;2022-09-21T07:13:48;102507.97;;;8.15;100.00
62418;BME280;48456;54.242;10.280;2022-09-21T07:16:15;102505.81;;;8.29;100.00
62418;BME280;48456;54.242;10.280;2022-09-21T07:18:41;102510.69;;;8.44;100.00
62418;BME280;48456;54.242;10.280;2022-09-21T07:21:09;102513.81;;;8.60;100.00
62418;BME280;48456;54.242;10.280;2022-09-21T07:23:36;102518.66;;;8.74;100.00
62418;BME280;48456;54.242;10.280;2022-09-21T07:26:03;102520.06;;;8.91;100.00
62418;BME280;48456;54.242;10.280;2022-09-21T07:28:30;102521.47;;;9.09;100.00
62418;BME280;48456;54.242;10.280;2022-09-21T07:30:57;102511.25;;;9.21;100.00
62418;BME280;48456;54.242;10.280;2022-09-21T07:33:24;102519.59;;;9.35;100.00
62418;BME280;48456;54.242;10.280;2022-09-21T07:35:54;102512.94;;;9.50;100.00
62418;BME280;48456;54.242;10.280;2022-09-21T07:38:22;102521.19;;;9.62;100.00
62418;BME280;48456;54.242;10.280;2022-09-21T07:40:49;102526.06;;;9.79;100.00
62418;BME280;48456;54.242;10.280;2022-09-21T07:43:15;102521.00;;;9.88;100.00
62418;BME280;48456;54.242;10.280;2022-09-21T07:45:42;102518.88;;;10.09;100.00
62418;BME280;48456;54.242;10.280;2022-09-21T07:48:09;102527.13;;;10.21;100.00
62418;BME280;48456;54.242;10.280;2022-09-21T07:50:35;102516.91;;;10.37;100.00
62418;BME280;48456;54.242;10.280;2022-09-21T07:53:02;102524.19;;;10.46;100.00
62418;BME280;48456;54.242;10.280;2022-09-21T07:55:28;102515.63;;;10.56;100.00
62418;BME280;48456;54.242;10.280;2022-09-21T07:57:55;102526.56;;;10.70;100.00
62418;BME280;48456;54.242;10.280;2022-09-21T08:00:40;102527.66;;;10.80;100.00
62418;BME280;48456;54.242;10.280;2022-09-21T08:03:06;102519.09;;;10.92;100.00
62418;BME280;48456;54.242;10.280;2022-09-21T08:05:32;102515.75;;;11.02;100.00
62418;BME280;48456;54.242;10.280;2022-09-21T08:07:59;102518.59;;;11.12;100.00
62418;BME280;48456;54.242;10.280;2022-09-21T08:10:25;102517.88;;;11.19;100.00
62418;BME280;48456;54.242;10.280;2022-09-21T08:12:57;102513.69;;;11.30;100.00
62418;BME280;48456;54.242;10.280;2022-09-21T08:15:23;102513.88;;;11.40;100.00
62418;BME280;48456;54.242;10.280;2022-09-21T08:18:10;102514.16;;;11.54;100.00
62418;BME280;48456;54.242;10.280;2022-09-21T08:20:36;102516.06;;;11.63;100.00
62418;BME280;48456;54.242;10.280;2022-09-21T08:23:03;102519.88;;;11.77;100.00
62418;BME280;48456;54.242;10.280;2022-09-21T08:25:30;102517.25;;;11.77;100.00
62418;BME280;48456;54.242;10.280;2022-09-21T08:27:57;102507.75;;;11.92;100.00
62418;BME280;48456;54.242;10.280;2022-09-21T08:30:23;102502.72;;;12.06;100.00
62418;BME280;48456;54.242;10.280;2022-09-21T08:32:53;102502.22;;;12.27;100.00
62418;BME280;48456;54.242;10.280;2022-09-21T08:35:20;102500.53;;;12.34;100.00
62418;BME280;48456;54.242;10.280;2022-09-21T08:37:46;102501.56;;;12.44;100.00
62418;BME280;48456;54.242;10.280;2022-09-21T08:40:12;102515.81;;;12.49;100.00
62418;BME280;48456;54.242;10.280;2022-09-21T08:42:45;102506.84;;;12.44;100.00
62418;BME280;48456;54.242;10.280;2022-09-21T08:45:16;102509.50;;;12.44;100.00
62418;BME280;48456;54.242;10.280;2022-09-21T08:52:53;102513.09;;;12.46;100.00
62418;BME280;48456;54.242;10.280;2022-09-21T08:55:23;102514.25;;;12.64;100.00
62418;BME280;48456;54.242;10.280;2022-09-21T08:57:49;102508.94;;;12.64;100.00
62418;BME280;48456;54.242;10.280;2022-09-21T09:00:17;102509.09;;;12.74;100.00
62418;BME280;48456;54.242;10.280;2022-09-21T09:05:31;102512.66;;;12.77;100.00
62418;BME280;48456;54.242;10.280;2022-09-21T09:16:03;102509.50;;;13.04;100.00
62418;BME280;48456;54.242;10.280;2022-09-21T09:21:10;102515.69;;;13.06;100.00
62418;BME280;48456;54.242;10.280;2022-09-21T09:23:44;102513.13;;;13.12;100.00
62418;BME280;48456;54.242;10.280;2022-09-21T09:26:18;102514.09;;;13.18;100.00
62418;BME280;48456;54.242;10.280;2022-09-21T09:28:50;102512.44;;;13.29;100.00
62418;BME280;48456;54.242;10.280;2022-09-21T09:31:26;102508.13;;;13.41;100.00
62418;BME280;48456;54.242;10.280;2022-09-21T09:36:39;102507.28;;;13.43;100.00
62418;BME280;48456;54.242;10.280;2022-09-21T09:39:23;102510.06;;;13.49;100.00
62418;BME280;48456;54.242;10.280;2022-09-21T09:49:37;102520.88;;;13.70;100.00
62418;BME280;48456;54.242;10.280;2022-09-21T09:52:08;102518.28;;;13.77;100.00
62418;BME280;48456;54.242;10.280;2022-09-21T09:54:36;102520.16;;;13.85;100.00
62418;BME280;48456;54.242;10.280;2022-09-21T09:57:03;102514.00;;;13.90;100.00
62418;BME280;48456;54.242;10.280;2022-09-21T09:59:31;102519.38;;;13.98;100.00
62418;BME280;48456;54.242;10.280;2022-09-21T10:04:27;102516.94;;;14.23;100.00
62418;BME280;48456;54.242;10.280;2022-09-21T10:06:54;102525.91;;;14.36;100.00
62418;BME280;48456;54.242;10.280;2022-09-21T10:09:27;102521.44;;;14.35;100.00
62418;BME280;48456;54.242;10.280;2022-09-21T10:11:55;102521.44;;;14.32;100.00
62418;BME280;48456;54.242;10.280;2022-09-21T10:14:24;102522.28;;;14.26;100.00
62418;BME280;48456;54.242;10.280;2022-09-21T10:16:51;102514.31;;;14.31;100.00
62418;BME280;48456;54.242;10.280;2022-09-21T10:19:22;102517.94;;;14.41;100.00
62418;BME280;48456;54.242;10.280;2022-09-21T10:21:56;102513.59;;;14.54;100.00
62418;BME280;48456;54.242;10.280;2022-09-21T10:24:33;102512.78;;;14.61;100.00
62418;BME280;48456;54.242;10.280;2022-09-21T10:29:28;102512.72;;;14.55;100.00
62418;BME280;48456;54.242;10.280;2022-09-21T10:34:39;102507.69;;;15.02;100.00
62418;BME280;48456;54.242;10.280;2022-09-21T10:37:22;102507.78;;;15.30;100.00
62418;BME280;48456;54.242;10.280;2022-09-21T10:39:50;102498.03;;;15.43;100.00
62418;BME280;48456;54.242;10.280;2022-09-21T10:42:17;102498.97;;;15.61;100.00
62418;BME280;48456;54.242;10.280;2022-09-21T10:49:53;102491.03;;;16.03;100.00
62418;BME280;48456;54.242;10.280;2022-09-21T10:52:21;102484.78;;;16.41;100.00
62418;BME280;48456;54.242;10.280;2022-09-21T10:54:49;102484.69;;;16.72;100.00
62418;BME280;48456;54.242;10.280;2022-09-21T10:57:18;102486.38;;;17.01;100.00
62418;BME280;48456;54.242;10.280;2022-09-21T10:59:45;102484.44;;;17.35;100.00
62418;BME280;48456;54.242;10.280;2022-09-21T11:02:25;102488.66;;;17.75;100.00
62418;BME280;48456;54.242;10.280;2022-09-21T11:04:56;102477.06;;;19.41;88.97
62418;BME280;48456;54.242;10.280;2022-09-21T11:10:05;102482.53;;;22.06;57.64
62418;BME280;48456;54.242;10.280;2022-09-21T11:20:47;102476.63;;;23.52;40.01
62418;BME280;48456;54.242;10.280;2022-09-21T11:23:20;102478.25;;;23.56;39.62
62418;BME280;48456;54.242;10.280;2022-09-21T11:26:02;102484.97;;;22.50;41.97
62418;BME280;48456;54.242;10.280;2022-09-21T11:28:36;102481.28;;;21.86;42.95
62418;BME280;48456;54.242;10.280;2022-09-21T11:31:09;102483.50;;;22.38;44.65
62418;BME280;48456;54.242;10.280;2022-09-21T11:33:44;102479.91;;;22.71;40.70
62418;BME280;48456;54.242;10.280;2022-09-21T11:36:24;102481.81;;;23.58;41.51
62418;BME280;48456;54.242;10.280;2022-09-21T11:38:59;102477.97;;;24.19;40.58
62418;BME280;48456;54.242;10.280;2022-09-21T11:49:20;102485.41;;;24.63;37.91
62418;BME280;48456;54.242;10.280;2022-09-21T11:52:00;102480.34;;;23.47;38.92
62418;BME280;48456;54.242;10.280;2022-09-21T11:56:59;102483.66;;;21.21;47.76
62418;BME280;48456;54.242;10.280;2022-09-21T11:59:34;102484.50;;;21.63;46.54
62418;BME280;48456;54.242;10.280;2022-09-21T12:02:17;102486.59;;;22.57;43.60
62418;BME280;48456;54.242;10.280;2022-09-21T12:04:54;102480.63;;;23.08;41.24
62418;BME280;48456;54.242;10.280;2022-09-21T12:07:35;102467.84;;;23.72;41.00
62418;BME280;48456;54.242;10.280;2022-09-21T12:12:44;102462.91;;;24.12;39.21
62418;BME280;48456;54.242;10.280;2022-09-21T12:15:19;102473.28;;;24.24;38.89
62418;BME280;48456;54.242;10.280;2022-09-21T12:17:56;102460.75;;;24.22;37.57
62418;BME280;48456;54.242;10.280;2022-09-21T12:23:01;102463.72;;;22.04;40.76
62418;BME280;48456;54.242;10.280;2022-09-21T12:25:33;102460.75;;;22.80;40.76
62418;BME280;48456;54.242;10.280;2022-09-21T12:28:15;102453.19;;;23.52;36.89
62418;BME280;48456;54.242;10.280;2022-09-21T12:30:45;102454.03;;;24.34;35.29
62418;BME280;48456;54.242;10.280;2022-09-21T12:33:30;102453.97;;;24.59;35.15
62418;BME280;48456;54.242;10.280;2022-09-21T12:36:10;102452.47;;;24.76;35.93
62418;BME280;48456;54.242;10.280;2022-09-21T12:38:41;102456.22;;;24.97;32.79
62418;BME280;48456;54.242;10.280;2022-09-21T12:44:04;102436.31;;;24.98;31.90
62418;BME280;48456;54.242;10.280;2022-09-21T12:46:39;102441.59;;;25.01;31.55
62418;BME280;48456;54.242;10.280;2022-09-21T12:49:16;102446.84;;;25.28;32.56
62418;BME280;48456;54.242;10.280;2022-09-21T12:51:52;102434.28;;;25.03;32.86
62418;BME280;48456;54.242;10.280;2022-09-21T12:56:55;102431.38;;;24.86;33.02
62418;BME280;48456;54.242;10.280;2022-09-21T12:59:36;102431.28;;;24.39;36.74
62418;BME280;48456;54.242;10.280;2022-09-21T13:04:44;102433.16;;;24.37;37.51
62418;BME280;48456;54.242;10.280;2022-09-21T13:10:58;102432.81;;;23.69;35.23
62418;BME280;48456;54.242;10.280;2022-09-21T13:13:05;102434.38;;;23.49;36.31
62418;BME280;48456;54.242;10.280;2022-09-21T13:15:46;102425.19;;;22.97;38.00
62418;BME280;48456;54.242;10.280;2022-09-21T13:18:18;102431.19;;;22.12;39.23
62418;BME280;48456;54.242;10.280;2022-09-21T13:20:46;102428.31;;;21.09;40.14
62418;BME280;48456;54.242;10.280;2022-09-21T13:23:14;102431.00;;;20.67;41.60
62418;BME280;48456;54.242;10.280;2022-09-21T13:25:41;102421.06;;;20.26;44.68
62418;BME280;48456;54.242;10.280;2022-09-21T13:28:16;102427.75;;;20.03;51.37
62418;BME280;48456;54.242;10.280;2022-09-21T13:30:45;102424.19;;;19.46;48.67
62418;BME280;48456;54.242;10.280;2022-09-21T13:35:50;102428.31;;;19.11;49.08
62418;BME280;48456;54.242;10.280;2022-09-21T13:40:59;102422.72;;;18.57;54.76
62418;BME280;48456;54.242;10.280;2022-09-21T13:48:57;102418.47;;;18.37;54.45
62418;BME280;48456;54.242;10.280;2022-09-21T13:51:24;102424.97;;;18.16;53.87
62418;BME280;48456;54.242;10.280;2022-09-21T13:53:52;102422.38;;;18.02;51.36
62418;BME280;48456;54.242;10.280;2022-09-21T13:56:23;102425.91;;;18.04;54.30
62418;BME280;48456;54.242;10.280;2022-09-21T13:58:51;102418.81;;;18.00;56.77
62418;BME280;48456;54.242;10.280;2022-09-21T14:01:20;102416.13;;;18.00;58.70
62418;BME280;48456;54.242;10.280;2022-09-21T14:04:41;102406.47;;;17.85;69.05
62418;BME280;48456;54.242;10.280;2022-09-21T14:07:03;102390.19;;;18.08;72.52
62418;BME280;48456;54.242;10.280;2022-09-21T14:09:39;102401.53;;;18.35;75.08
62418;BME280;48456;54.242;10.280;2022-09-21T14:12:16;102402.16;;;18.57;68.97
62418;BME280;48456;54.242;10.280;2022-09-21T14:14:44;102392.94;;;18.79;68.84
62418;BME280;48456;54.242;10.280;2022-09-21T14:17:34;102396.91;;;18.48;59.89
62418;BME280;48456;54.242;10.280;2022-09-21T14:20:02;102397.03;;;18.37;67.95
62418;BME280;48456;54.242;10.280;2022-09-21T14:22:31;102385.81;;;18.01;74.77
62418;BME280;48456;54.242;10.280;2022-09-21T14:27:43;102394.47;;;17.23;88.18
62418;BME280;48456;54.242;10.280;2022-09-21T14:30:19;102388.31;;;17.10;93.04
62418;BME280;48456;54.242;10.280;2022-09-21T14:35:23;102387.47;;;17.00;98.04
62418;BME280;48456;54.242;10.280;2022-09-21T14:37:57;102383.94;;;16.92;100.00
62418;BME280;48456;54.242;10.280;2022-09-21T14:40:33;102379.63;;;16.70;96.37
62418;BME280;48456;54.242;10.280;2022-09-21T14:43:08;102380.47;;;16.68;97.38
62418;BME280;48456;54.242;10.280;2022-09-21T14:51:20;102368.13;;;19.30;65.36
62418;BME280;48456;54.242;10.280;2022-09-21T14:53:57;102363.91;;;20.18;58.03
62418;BME280;48456;54.242;10.280;2022-09-21T14:56:37;102372.81;;;20.20;52.33
62418;BME280;48456;54.242;10.280;2022-09-21T15:01:40;102365.97;;;20.03;56.00
62418;BME280;48456;54.242;10.280;2022-09-21T15:04:26;102361.13;;;19.72;58.14
62418;BME280;48456;54.242;10.280;2022-09-21T15:07:01;102356.03;;;18.98;60.50
62418;BME280;48456;54.242;10.280;2022-09-21T15:09:53;102361.22;;;18.44;71.36
62418;BME280;48456;54.242;10.280;2022-09-21T15:17:51;102367.72;;;17.23;85.64
62418;BME280;48456;54.242;10.280;2022-09-21T15:20:25;102371.44;;;17.06;100.00
62418;BME280;48456;54.242;10.280;2022-09-21T15:22:55;102364.38;;;16.85;100.00
62418;BME280;48456;54.242;10.280;2022-09-21T15:25:23;102359.16;;;16.58;100.00
62418;BME280;48456;54.242;10.280;2022-09-21T15:27:50;102360.16;;;16.31;100.00
62418;BME280;48456;54.242;10.280;2022-09-21T15:30:19;102363.81;;;16.00;100.00